Airfield :
LOGIN :

Register | Disclaimer

   EN    FR    IT 

 










Legend :    VFR   Marginal VFR   IFR   Intensive IFR   Very Intensive IFR
Visi :
Ceiling :
>= 8 km
>= 3000ft
5 to 8 km
1000 to 3000 ft
1500m to 5 km
500 to 1000 ft
800 to 1500m
200 to 500 ft
< 800m
< 200 ft
Symbols :   Thunderstorms  Fog  Heavy snow  Heavy precipitations  Wind > 20 kt
SIGMETs :     Misc.  Thunderstorms  Icing  Turbulence  Mountain Waves  Volcanic Ashes






- Airport Elevation : 117 ft
- IATA code : NWI


EGSH - Norwich

CURRENT METAR :
  • 300250Z AUTO 03002KT 0200 FG FEW015/// 01/00 Q1023

EXPIRED METARs :
  • 300220Z AUTO 36001KT 0250 FG NCD 01/00 Q1023
  • 300150Z AUTO 36002KT 0100 FG NCD 02/02 Q1023
  • 300120Z AUTO 02001KT 0150 FG NCD 02/01 Q1023

TAF AMD TAF EGSH
Valid from the 30 at 03:00 until the 30 at 12:00 UTC


300305Z 3003/3012 34004KT 3000 BR FEW015
TEMPO 3003/3007 0300 FG OVC001
BECMG 3007/3010 6000 NSW
PROB40
TEMPO 3007/3009 0300 FG OVC001
ATIS : +44 1603 420 640



MET'MAP, your aeronautical weather chart ! - Copyright ORBIFLY December 2007 - Disclaimer

ORBIFLY MET'MAP TEAM :

Programming & Development : Alexandra Zaïnal
Original concept : Baudouin d'Aumeries
Technical & hardware support : Manuel Goepfert
Assistance : Marc-Olivier Méhu




SOURCES & CREDITS :

   NOAA